sensor_id;sensor_type;location;lat;lon;timestamp;P1;durP1;ratioP1;P2;durP2;ratioP2
5704;SDS011;2877;48.238;11.160;2022-12-07T00:00:01;12.03;;;7.70;;
5704;SDS011;2877;48.238;11.160;2022-12-07T00:02:27;11.20;;;8.07;;
5704;SDS011;2877;48.238;11.160;2022-12-07T00:04:53;12.60;;;8.37;;
5704;SDS011;2877;48.238;11.160;2022-12-07T00:07:18;10.10;;;6.67;;
5704;SDS011;2877;48.238;11.160;2022-12-07T00:09:44;10.60;;;7.87;;
5704;SDS011;2877;48.238;11.160;2022-12-07T00:12:09;9.10;;;6.80;;
5704;SDS011;2877;48.238;11.160;2022-12-07T00:14:35;10.10;;;7.43;;
5704;SDS011;2877;48.238;11.160;2022-12-07T00:17:00;10.27;;;7.20;;
5704;SDS011;2877;48.238;11.160;2022-12-07T00:19:26;8.57;;;6.43;;
5704;SDS011;2877;48.238;11.160;2022-12-07T00:21:52;8.43;;;6.43;;
5704;SDS011;2877;48.238;11.160;2022-12-07T00:24:17;8.03;;;6.00;;
5704;SDS011;2877;48.238;11.160;2022-12-07T00:26:43;6.17;;;5.57;;
5704;SDS011;2877;48.238;11.160;2022-12-07T00:29:12;7.83;;;5.93;;
5704;SDS011;2877;48.238;11.160;2022-12-07T00:31:41;10.10;;;6.37;;
5704;SDS011;2877;48.238;11.160;2022-12-07T00:34:09;9.53;;;6.43;;
5704;SDS011;2877;48.238;11.160;2022-12-07T00:36:38;8.57;;;6.33;;
5704;SDS011;2877;48.238;11.160;2022-12-07T00:39:03;22.80;;;6.50;;
5704;SDS011;2877;48.238;11.160;2022-12-07T00:41:29;8.50;;;6.50;;
5704;SDS011;2877;48.238;11.160;2022-12-07T00:43:55;9.57;;;6.90;;
5704;SDS011;2877;48.238;11.160;2022-12-07T00:46:22;10.87;;;7.30;;
5704;SDS011;2877;48.238;11.160;2022-12-07T00:48:48;9.50;;;7.00;;
5704;SDS011;2877;48.238;11.160;2022-12-07T00:51:15;10.13;;;7.03;;
5704;SDS011;2877;48.238;11.160;2022-12-07T00:53:42;9.70;;;6.83;;
5704;SDS011;2877;48.238;11.160;2022-12-07T00:56:09;11.33;;;7.40;;
5704;SDS011;2877;48.238;11.160;2022-12-07T00:58:39;8.53;;;5.97;;
5704;SDS011;2877;48.238;11.160;2022-12-07T01:01:05;10.97;;;7.37;;
5704;SDS011;2877;48.238;11.160;2022-12-07T01:03:32;8.83;;;6.70;;
5704;SDS011;2877;48.238;11.160;2022-12-07T01:05:58;10.93;;;7.87;;
5704;SDS011;2877;48.238;11.160;2022-12-07T01:08:24;9.60;;;6.97;;
5704;SDS011;2877;48.238;11.160;2022-12-07T01:11:01;9.80;;;6.90;;
5704;SDS011;2877;48.238;11.160;2022-12-07T01:13:29;14.00;;;7.37;;
5704;SDS011;2877;48.238;11.160;2022-12-07T01:15:57;9.70;;;6.53;;
5704;SDS011;2877;48.238;11.160;2022-12-07T01:18:27;10.20;;;6.97;;
5704;SDS011;2877;48.238;11.160;2022-12-07T01:21:01;10.20;;;7.07;;
5704;SDS011;2877;48.238;11.160;2022-12-07T01:23:31;10.83;;;6.97;;
5704;SDS011;2877;48.238;11.160;2022-12-07T01:25:58;9.93;;;7.00;;
5704;SDS011;2877;48.238;11.160;2022-12-07T01:28:25;10.97;;;8.10;;
5704;SDS011;2877;48.238;11.160;2022-12-07T01:31:05;9.53;;;6.90;;
5704;SDS011;2877;48.238;11.160;2022-12-07T01:33:36;10.23;;;6.17;;
5704;SDS011;2877;48.238;11.160;2022-12-07T01:36:04;9.87;;;7.17;;
5704;SDS011;2877;48.238;11.160;2022-12-07T01:38:32;9.80;;;6.80;;
5704;SDS011;2877;48.238;11.160;2022-12-07T01:40:59;10.40;;;6.80;;
5704;SDS011;2877;48.238;11.160;2022-12-07T01:43:26;12.43;;;7.07;;
5704;SDS011;2877;48.238;11.160;2022-12-07T01:45:53;11.97;;;7.03;;
5704;SDS011;2877;48.238;11.160;2022-12-07T01:48:21;9.10;;;6.47;;
5704;SDS011;2877;48.238;11.160;2022-12-07T01:50:53;8.40;;;6.77;;
5704;SDS011;2877;48.238;11.160;2022-12-07T01:53:21;11.60;;;7.67;;
5704;SDS011;2877;48.238;11.160;2022-12-07T01:55:51;11.03;;;6.90;;
5704;SDS011;2877;48.238;11.160;2022-12-07T01:58:21;9.60;;;7.40;;
5704;SDS011;2877;48.238;11.160;2022-12-07T02:00:48;8.60;;;6.23;;
5704;SDS011;2877;48.238;11.160;2022-12-07T02:03:34;6.67;;;5.90;;
5704;SDS011;2877;48.238;11.160;2022-12-07T02:06:04;8.00;;;6.00;;
5704;SDS011;2877;48.238;11.160;2022-12-07T02:08:30;8.23;;;6.30;;
5704;SDS011;2877;48.238;11.160;2022-12-07T02:10:57;9.20;;;6.23;;
5704;SDS011;2877;48.238;11.160;2022-12-07T02:13:23;9.47;;;6.30;;
5704;SDS011;2877;48.238;11.160;2022-12-07T02:21:27;6.80;;;5.90;;
5704;SDS011;2877;48.238;11.160;2022-12-07T02:30:17;9.57;;;6.57;;
5704;SDS011;2877;48.238;11.160;2022-12-07T02:35:30;9.60;;;6.93;;
5704;SDS011;2877;48.238;11.160;2022-12-07T02:38:13;8.60;;;6.37;;
5704;SDS011;2877;48.238;11.160;2022-12-07T02:40:46;6.70;;;5.50;;
5704;SDS011;2877;48.238;11.160;2022-12-07T02:43:17;9.10;;;6.00;;
5704;SDS011;2877;48.238;11.160;2022-12-07T02:45:48;7.20;;;6.07;;
5704;SDS011;2877;48.238;11.160;2022-12-07T02:48:16;13.13;;;6.20;;
5704;SDS011;2877;48.238;11.160;2022-12-07T02:50:53;10.57;;;7.03;;
5704;SDS011;2877;48.238;11.160;2022-12-07T02:55:54;9.97;;;6.77;;
5704;SDS011;2877;48.238;11.160;2022-12-07T02:58:28;8.03;;;6.13;;
5704;SDS011;2877;48.238;11.160;2022-12-07T03:01:03;9.60;;;7.00;;
5704;SDS011;2877;48.238;11.160;2022-12-07T03:03:37;10.10;;;6.73;;
5704;SDS011;2877;48.238;11.160;2022-12-07T03:06:11;10.93;;;7.17;;
5704;SDS011;2877;48.238;11.160;2022-12-07T03:08:51;9.90;;;6.57;;
5704;SDS011;2877;48.238;11.160;2022-12-07T03:11:26;11.90;;;7.50;;
5704;SDS011;2877;48.238;11.160;2022-12-07T03:13:59;9.80;;;7.20;;
5704;SDS011;2877;48.238;11.160;2022-12-07T03:16:29;11.27;;;6.53;;
5704;SDS011;2877;48.238;11.160;2022-12-07T03:21:53;10.70;;;6.83;;
5704;SDS011;2877;48.238;11.160;2022-12-07T03:24:37;11.57;;;7.90;;
5704;SDS011;2877;48.238;11.160;2022-12-07T03:27:08;13.00;;;8.50;;
5704;SDS011;2877;48.238;11.160;2022-12-07T03:29:59;14.70;;;7.77;;
5704;SDS011;2877;48.238;11.160;2022-12-07T03:32:33;11.97;;;8.20;;
5704;SDS011;2877;48.238;11.160;2022-12-07T03:35:17;10.80;;;7.10;;
5704;SDS011;2877;48.238;11.160;2022-12-07T03:43:14;10.77;;;7.30;;
5704;SDS011;2877;48.238;11.160;2022-12-07T03:45:42;10.70;;;7.60;;
5704;SDS011;2877;48.238;11.160;2022-12-07T03:53:44;12.73;;;7.90;;
5704;SDS011;2877;48.238;11.160;2022-12-07T03:56:15;12.30;;;8.27;;
5704;SDS011;2877;48.238;11.160;2022-12-07T03:58:41;12.67;;;7.80;;
5704;SDS011;2877;48.238;11.160;2022-12-07T04:01:08;11.23;;;7.60;;
5704;SDS011;2877;48.238;11.160;2022-12-07T04:03:33;12.43;;;7.70;;
5704;SDS011;2877;48.238;11.160;2022-12-07T04:05:59;10.57;;;7.10;;
5704;SDS011;2877;48.238;11.160;2022-12-07T04:08:25;11.47;;;7.63;;
5704;SDS011;2877;48.238;11.160;2022-12-07T04:10:51;10.67;;;7.40;;
5704;SDS011;2877;48.238;11.160;2022-12-07T04:13:16;12.20;;;7.90;;
5704;SDS011;2877;48.238;11.160;2022-12-07T04:15:42;12.07;;;7.90;;
5704;SDS011;2877;48.238;11.160;2022-12-07T04:18:07;12.07;;;7.60;;
5704;SDS011;2877;48.238;11.160;2022-12-07T04:20:33;12.27;;;8.27;;
5704;SDS011;2877;48.238;11.160;2022-12-07T04:22:59;14.20;;;8.43;;
5704;SDS011;2877;48.238;11.160;2022-12-07T04:25:24;12.93;;;7.67;;
5704;SDS011;2877;48.238;11.160;2022-12-07T04:27:50;12.57;;;8.10;;
5704;SDS011;2877;48.238;11.160;2022-12-07T04:30:15;13.93;;;8.60;;
5704;SDS011;2877;48.238;11.160;2022-12-07T04:32:41;12.37;;;8.10;;
5704;SDS011;2877;48.238;11.160;2022-12-07T04:35:06;10.13;;;7.60;;
5704;SDS011;2877;48.238;11.160;2022-12-07T04:37:33;11.03;;;7.80;;
5704;SDS011;2877;48.238;11.160;2022-12-07T04:39:58;11.83;;;8.20;;
5704;SDS011;2877;48.238;11.160;2022-12-07T04:42:24;11.70;;;8.10;;
5704;SDS011;2877;48.238;11.160;2022-12-07T04:44:49;12.03;;;8.07;;
5704;SDS011;2877;48.238;11.160;2022-12-07T04:47:16;14.33;;;8.77;;
5704;SDS011;2877;48.238;11.160;2022-12-07T04:49:41;11.60;;;7.80;;
5704;SDS011;2877;48.238;11.160;2022-12-07T04:52:07;11.57;;;7.20;;
5704;SDS011;2877;48.238;11.160;2022-12-07T04:54:33;13.17;;;8.30;;
5704;SDS011;2877;48.238;11.160;2022-12-07T04:56:58;14.50;;;8.53;;
5704;SDS011;2877;48.238;11.160;2022-12-07T04:59:24;13.43;;;8.77;;
5704;SDS011;2877;48.238;11.160;2022-12-07T05:01:50;10.60;;;7.70;;
5704;SDS011;2877;48.238;11.160;2022-12-07T05:04:15;21.13;;;8.50;;
5704;SDS011;2877;48.238;11.160;2022-12-07T05:06:42;12.70;;;8.37;;
5704;SDS011;2877;48.238;11.160;2022-12-07T05:09:08;12.90;;;7.40;;
5704;SDS011;2877;48.238;11.160;2022-12-07T05:11:33;12.47;;;7.50;;
5704;SDS011;2877;48.238;11.160;2022-12-07T05:14:20;11.73;;;7.57;;
5704;SDS011;2877;48.238;11.160;2022-12-07T05:16:47;12.10;;;8.30;;
5704;SDS011;2877;48.238;11.160;2022-12-07T05:19:14;13.63;;;8.23;;
5704;SDS011;2877;48.238;11.160;2022-12-07T05:21:40;13.63;;;8.77;;
5704;SDS011;2877;48.238;11.160;2022-12-07T05:24:06;13.43;;;8.50;;
5704;SDS011;2877;48.238;11.160;2022-12-07T05:26:33;12.40;;;8.30;;
5704;SDS011;2877;48.238;11.160;2022-12-07T05:28:59;15.40;;;8.30;;
5704;SDS011;2877;48.238;11.160;2022-12-07T05:31:26;14.10;;;9.60;;
5704;SDS011;2877;48.238;11.160;2022-12-07T05:33:53;15.30;;;9.60;;
5704;SDS011;2877;48.238;11.160;2022-12-07T05:36:19;13.47;;;8.70;;
5704;SDS011;2877;48.238;11.160;2022-12-07T05:38:45;12.80;;;8.60;;
5704;SDS011;2877;48.238;11.160;2022-12-07T05:41:12;13.77;;;8.73;;
5704;SDS011;2877;48.238;11.160;2022-12-07T05:43:58;13.90;;;8.07;;
5704;SDS011;2877;48.238;11.160;2022-12-07T05:46:23;15.33;;;9.37;;
5704;SDS011;2877;48.238;11.160;2022-12-07T05:48:49;15.30;;;10.07;;
5704;SDS011;2877;48.238;11.160;2022-12-07T05:51:15;13.57;;;9.70;;
5704;SDS011;2877;48.238;11.160;2022-12-07T05:53:40;14.73;;;8.60;;
5704;SDS011;2877;48.238;11.160;2022-12-07T05:56:06;13.47;;;8.60;;
5704;SDS011;2877;48.238;11.160;2022-12-07T05:58:32;13.20;;;8.83;;
5704;SDS011;2877;48.238;11.160;2022-12-07T06:01:16;13.50;;;8.90;;
5704;SDS011;2877;48.238;11.160;2022-12-07T06:03:41;13.00;;;8.63;;
5704;SDS011;2877;48.238;11.160;2022-12-07T06:06:07;14.83;;;9.47;;
5704;SDS011;2877;48.238;11.160;2022-12-07T06:08:32;15.93;;;9.43;;
5704;SDS011;2877;48.238;11.160;2022-12-07T06:10:58;17.10;;;10.50;;
5704;SDS011;2877;48.238;11.160;2022-12-07T06:13:42;13.17;;;9.17;;
5704;SDS011;2877;48.238;11.160;2022-12-07T06:16:07;16.53;;;9.60;;
5704;SDS011;2877;48.238;11.160;2022-12-07T06:18:33;13.43;;;9.17;;
5704;SDS011;2877;48.238;11.160;2022-12-07T06:20:59;15.43;;;9.57;;
5704;SDS011;2877;48.238;11.160;2022-12-07T06:23:24;17.40;;;10.30;;
5704;SDS011;2877;48.238;11.160;2022-12-07T06:25:50;14.50;;;9.73;;
5704;SDS011;2877;48.238;11.160;2022-12-07T06:28:15;16.77;;;11.00;;
5704;SDS011;2877;48.238;11.160;2022-12-07T06:30:41;16.90;;;10.23;;
5704;SDS011;2877;48.238;11.160;2022-12-07T06:33:06;15.20;;;10.27;;
5704;SDS011;2877;48.238;11.160;2022-12-07T06:35:32;16.73;;;10.30;;
5704;SDS011;2877;48.238;11.160;2022-12-07T06:37:58;17.30;;;10.40;;
5704;SDS011;2877;48.238;11.160;2022-12-07T06:40:24;14.60;;;9.30;;
5704;SDS011;2877;48.238;11.160;2022-12-07T06:42:49;19.20;;;11.40;;
5704;SDS011;2877;48.238;11.160;2022-12-07T06:45:15;14.50;;;9.40;;
5704;SDS011;2877;48.238;11.160;2022-12-07T06:47:41;16.53;;;10.23;;
5704;SDS011;2877;48.238;11.160;2022-12-07T06:50:06;17.57;;;10.60;;
5704;SDS011;2877;48.238;11.160;2022-12-07T06:52:32;17.50;;;10.40;;
5704;SDS011;2877;48.238;11.160;2022-12-07T06:54:58;16.53;;;10.53;;
5704;SDS011;2877;48.238;11.160;2022-12-07T06:57:24;17.97;;;10.50;;
5704;SDS011;2877;48.238;11.160;2022-12-07T06:59:50;19.83;;;11.70;;
5704;SDS011;2877;48.238;11.160;2022-12-07T07:02:16;17.10;;;11.03;;
5704;SDS011;2877;48.238;11.160;2022-12-07T07:04:41;18.57;;;10.90;;
5704;SDS011;2877;48.238;11.160;2022-12-07T07:07:07;19.20;;;12.33;;
5704;SDS011;2877;48.238;11.160;2022-12-07T07:09:33;17.47;;;11.37;;
5704;SDS011;2877;48.238;11.160;2022-12-07T07:11:58;17.60;;;10.73;;
5704;SDS011;2877;48.238;11.160;2022-12-07T07:14:24;15.30;;;10.00;;
5704;SDS011;2877;48.238;11.160;2022-12-07T07:16:50;17.00;;;10.90;;
5704;SDS011;2877;48.238;11.160;2022-12-07T07:19:15;17.70;;;10.73;;
5704;SDS011;2877;48.238;11.160;2022-12-07T07:21:41;17.20;;;11.10;;
5704;SDS011;2877;48.238;11.160;2022-12-07T07:24:06;17.10;;;11.17;;
5704;SDS011;2877;48.238;11.160;2022-12-07T07:26:32;19.97;;;12.30;;
5704;SDS011;2877;48.238;11.160;2022-12-07T07:28:58;21.40;;;12.03;;
5704;SDS011;2877;48.238;11.160;2022-12-07T07:31:23;16.40;;;11.00;;
5704;SDS011;2877;48.238;11.160;2022-12-07T07:33:49;18.63;;;11.93;;
5704;SDS011;2877;48.238;11.160;2022-12-07T07:36:14;17.50;;;10.90;;
5704;SDS011;2877;48.238;11.160;2022-12-07T07:38:40;15.13;;;10.30;;
5704;SDS011;2877;48.238;11.160;2022-12-07T07:41:05;19.63;;;10.10;;
5704;SDS011;2877;48.238;11.160;2022-12-07T07:43:31;13.23;;;9.00;;
5704;SDS011;2877;48.238;11.160;2022-12-07T07:45:57;12.97;;;9.47;;
5704;SDS011;2877;48.238;11.160;2022-12-07T07:48:23;16.63;;;10.43;;
5704;SDS011;2877;48.238;11.160;2022-12-07T07:50:50;16.90;;;10.57;;
5704;SDS011;2877;48.238;11.160;2022-12-07T07:53:16;16.97;;;10.60;;
5704;SDS011;2877;48.238;11.160;2022-12-07T07:55:41;15.83;;;9.80;;
5704;SDS011;2877;48.238;11.160;2022-12-07T07:58:14;14.70;;;9.97;;
5704;SDS011;2877;48.238;11.160;2022-12-07T08:00:40;15.83;;;10.60;;
5704;SDS011;2877;48.238;11.160;2022-12-07T08:03:05;16.13;;;10.20;;
5704;SDS011;2877;48.238;11.160;2022-12-07T08:05:31;15.10;;;9.83;;
5704;SDS011;2877;48.238;11.160;2022-12-07T08:07:57;17.47;;;9.73;;
5704;SDS011;2877;48.238;11.160;2022-12-07T08:10:22;15.10;;;10.43;;
5704;SDS011;2877;48.238;11.160;2022-12-07T08:12:48;18.10;;;10.93;;
5704;SDS011;2877;48.238;11.160;2022-12-07T08:15:32;19.43;;;11.10;;
5704;SDS011;2877;48.238;11.160;2022-12-07T08:17:58;20.90;;;11.83;;
5704;SDS011;2877;48.238;11.160;2022-12-07T08:20:24;18.20;;;10.17;;
5704;SDS011;2877;48.238;11.160;2022-12-07T08:22:50;20.53;;;11.10;;
5704;SDS011;2877;48.238;11.160;2022-12-07T08:25:16;18.43;;;10.30;;
5704;SDS011;2877;48.238;11.160;2022-12-07T08:27:41;17.10;;;10.40;;
5704;SDS011;2877;48.238;11.160;2022-12-07T08:30:07;17.67;;;10.47;;
5704;SDS011;2877;48.238;11.160;2022-12-07T08:32:33;18.63;;;10.70;;
5704;SDS011;2877;48.238;11.160;2022-12-07T08:34:58;16.40;;;10.00;;
5704;SDS011;2877;48.238;11.160;2022-12-07T08:37:24;19.60;;;11.87;;
5704;SDS011;2877;48.238;11.160;2022-12-07T08:39:50;17.50;;;11.20;;
5704;SDS011;2877;48.238;11.160;2022-12-07T08:42:15;19.10;;;11.50;;
5704;SDS011;2877;48.238;11.160;2022-12-07T08:44:41;19.10;;;12.17;;
5704;SDS011;2877;48.238;11.160;2022-12-07T08:47:06;19.70;;;12.60;;
5704;SDS011;2877;48.238;11.160;2022-12-07T08:49:39;19.43;;;11.87;;
5704;SDS011;2877;48.238;11.160;2022-12-07T08:52:08;17.23;;;10.93;;
5704;SDS011;2877;48.238;11.160;2022-12-07T08:54:34;17.00;;;10.20;;
5704;SDS011;2877;48.238;11.160;2022-12-07T08:57:03;18.80;;;11.40;;
5704;SDS011;2877;48.238;11.160;2022-12-07T08:59:31;18.47;;;11.50;;
5704;SDS011;2877;48.238;11.160;2022-12-07T09:01:59;17.67;;;11.00;;
5704;SDS011;2877;48.238;11.160;2022-12-07T09:04:25;16.53;;;10.87;;
5704;SDS011;2877;48.238;11.160;2022-12-07T09:06:51;19.40;;;10.73;;
5704;SDS011;2877;48.238;11.160;2022-12-07T09:09:16;25.90;;;13.37;;
5704;SDS011;2877;48.238;11.160;2022-12-07T09:11:42;19.70;;;11.80;;
5704;SDS011;2877;48.238;11.160;2022-12-07T09:14:10;17.10;;;10.87;;
5704;SDS011;2877;48.238;11.160;2022-12-07T09:16:35;18.77;;;10.70;;
5704;SDS011;2877;48.238;11.160;2022-12-07T09:19:01;20.33;;;11.87;;
5704;SDS011;2877;48.238;11.160;2022-12-07T09:21:27;19.30;;;11.13;;
5704;SDS011;2877;48.238;11.160;2022-12-07T09:23:52;17.73;;;11.43;;
5704;SDS011;2877;48.238;11.160;2022-12-07T09:26:18;16.87;;;10.50;;
5704;SDS011;2877;48.238;11.160;2022-12-07T09:28:43;18.83;;;12.00;;
5704;SDS011;2877;48.238;11.160;2022-12-07T09:31:09;16.57;;;11.00;;
5704;SDS011;2877;48.238;11.160;2022-12-07T09:33:34;17.80;;;11.03;;
5704;SDS011;2877;48.238;11.160;2022-12-07T09:36:00;15.67;;;10.30;;
5704;SDS011;2877;48.238;11.160;2022-12-07T09:38:25;16.97;;;9.70;;
5704;SDS011;2877;48.238;11.160;2022-12-07T09:40:51;19.17;;;11.60;;
5704;SDS011;2877;48.238;11.160;2022-12-07T09:43:19;14.67;;;9.00;;
5704;SDS011;2877;48.238;11.160;2022-12-07T09:45:48;17.77;;;9.83;;
5704;SDS011;2877;48.238;11.160;2022-12-07T09:48:19;14.77;;;9.40;;
5704;SDS011;2877;48.238;11.160;2022-12-07T09:50:47;14.30;;;9.60;;
5704;SDS011;2877;48.238;11.160;2022-12-07T09:53:15;15.77;;;10.10;;
5704;SDS011;2877;48.238;11.160;2022-12-07T09:55:47;16.77;;;10.07;;
5704;SDS011;2877;48.238;11.160;2022-12-07T09:58:20;14.97;;;9.20;;
5704;SDS011;2877;48.238;11.160;2022-12-07T10:00:53;14.00;;;9.17;;
5704;SDS011;2877;48.238;11.160;2022-12-07T10:03:23;20.40;;;9.27;;
5704;SDS011;2877;48.238;11.160;2022-12-07T10:05:51;15.87;;;9.80;;
5704;SDS011;2877;48.238;11.160;2022-12-07T10:08:17;14.37;;;9.50;;
5704;SDS011;2877;48.238;11.160;2022-12-07T10:10:44;13.23;;;8.77;;
5704;SDS011;2877;48.238;11.160;2022-12-07T10:13:15;13.77;;;9.37;;
5704;SDS011;2877;48.238;11.160;2022-12-07T10:15:54;13.03;;;8.40;;
5704;SDS011;2877;48.238;11.160;2022-12-07T10:18:29;12.27;;;8.20;;
5704;SDS011;2877;48.238;11.160;2022-12-07T10:23:42;13.23;;;8.13;;
5704;SDS011;2877;48.238;11.160;2022-12-07T10:28:58;14.10;;;7.90;;
5704;SDS011;2877;48.238;11.160;2022-12-07T10:31:26;11.90;;;7.53;;
5704;SDS011;2877;48.238;11.160;2022-12-07T10:33:53;10.67;;;7.30;;
5704;SDS011;2877;48.238;11.160;2022-12-07T10:36:36;11.57;;;7.73;;
5704;SDS011;2877;48.238;11.160;2022-12-07T10:39:11;11.80;;;7.40;;
5704;SDS011;2877;48.238;11.160;2022-12-07T10:44:24;9.93;;;7.30;;
5704;SDS011;2877;48.238;11.160;2022-12-07T10:49:45;11.40;;;7.50;;
5704;SDS011;2877;48.238;11.160;2022-12-07T10:52:18;11.60;;;7.43;;
5704;SDS011;2877;48.238;11.160;2022-12-07T10:55:20;9.30;;;6.27;;
5704;SDS011;2877;48.238;11.160;2022-12-07T10:57:59;10.23;;;7.13;;
5704;SDS011;2877;48.238;11.160;2022-12-07T11:03:44;12.40;;;7.90;;
5704;SDS011;2877;48.238;11.160;2022-12-07T11:06:34;11.10;;;7.73;;
5704;SDS011;2877;48.238;11.160;2022-12-07T11:12:06;10.50;;;7.37;;
5704;SDS011;2877;48.238;11.160;2022-12-07T11:32:13;9.57;;;6.53;;
5704;SDS011;2877;48.238;11.160;2022-12-07T11:37:44;13.33;;;7.80;;
5704;SDS011;2877;48.238;11.160;2022-12-07T11:40:15;8.93;;;6.70;;
5704;SDS011;2877;48.238;11.160;2022-12-07T11:42:51;9.50;;;6.60;;
5704;SDS011;2877;48.238;11.160;2022-12-07T11:45:26;7.00;;;5.57;;
5704;SDS011;2877;48.238;11.160;2022-12-07T11:55:40;8.00;;;5.80;;
5704;SDS011;2877;48.238;11.160;2022-12-07T12:01:13;9.10;;;5.77;;
5704;SDS011;2877;48.238;11.160;2022-12-07T12:03:46;8.30;;;5.33;;
5704;SDS011;2877;48.238;11.160;2022-12-07T12:06:14;6.67;;;5.10;;
5704;SDS011;2877;48.238;11.160;2022-12-07T12:08:48;6.97;;;5.07;;
5704;SDS011;2877;48.238;11.160;2022-12-07T12:13:55;6.83;;;5.53;;
5704;SDS011;2877;48.238;11.160;2022-12-07T12:21:44;10.30;;;5.77;;
5704;SDS011;2877;48.238;11.160;2022-12-07T12:24:17;7.60;;;5.13;;
5704;SDS011;2877;48.238;11.160;2022-12-07T12:26:49;6.80;;;5.17;;
5704;SDS011;2877;48.238;11.160;2022-12-07T12:29:27;7.90;;;5.60;;
5704;SDS011;2877;48.238;11.160;2022-12-07T12:32:06;6.87;;;5.97;;
5704;SDS011;2877;48.238;11.160;2022-12-07T12:34:40;7.37;;;5.60;;
5704;SDS011;2877;48.238;11.160;2022-12-07T12:40:37;7.90;;;5.63;;
5704;SDS011;2877;48.238;11.160;2022-12-07T12:42:57;7.30;;;5.60;;
5704;SDS011;2877;48.238;11.160;2022-12-07T12:45:24;8.73;;;5.73;;
5704;SDS011;2877;48.238;11.160;2022-12-07T12:50:35;9.30;;;6.47;;
5704;SDS011;2877;48.238;11.160;2022-12-07T12:53:21;7.43;;;5.70;;
5704;SDS011;2877;48.238;11.160;2022-12-07T12:56:14;7.83;;;5.43;;
5704;SDS011;2877;48.238;11.160;2022-12-07T12:59:18;7.03;;;5.07;;
5704;SDS011;2877;48.238;11.160;2022-12-07T13:01:49;9.20;;;5.87;;
5704;SDS011;2877;48.238;11.160;2022-12-07T13:04:24;8.03;;;5.20;;
5704;SDS011;2877;48.238;11.160;2022-12-07T13:06:53;8.00;;;5.50;;
5704;SDS011;2877;48.238;11.160;2022-12-07T13:09:31;8.80;;;5.70;;
5704;SDS011;2877;48.238;11.160;2022-12-07T13:12:11;8.70;;;5.80;;
5704;SDS011;2877;48.238;11.160;2022-12-07T13:19:58;9.17;;;5.43;;
5704;SDS011;2877;48.238;11.160;2022-12-07T13:25:05;8.30;;;5.83;;
5704;SDS011;2877;48.238;11.160;2022-12-07T13:27:51;6.90;;;5.93;;
5704;SDS011;2877;48.238;11.160;2022-12-07T13:30:25;28.50;;;14.67;;
5704;SDS011;2877;48.238;11.160;2022-12-07T13:32:56;10.10;;;6.00;;
5704;SDS011;2877;48.238;11.160;2022-12-07T13:38:01;9.00;;;5.27;;
5704;SDS011;2877;48.238;11.160;2022-12-07T13:40:30;6.87;;;5.83;;
5704;SDS011;2877;48.238;11.160;2022-12-07T13:42:59;12.73;;;7.40;;
5704;SDS011;2877;48.238;11.160;2022-12-07T13:45:28;9.67;;;6.20;;
5704;SDS011;2877;48.238;11.160;2022-12-07T13:50:57;8.67;;;6.20;;
5704;SDS011;2877;48.238;11.160;2022-12-07T13:53:24;8.00;;;5.93;;
5704;SDS011;2877;48.238;11.160;2022-12-07T13:55:55;8.97;;;5.40;;
5704;SDS011;2877;48.238;11.160;2022-12-07T13:58:24;8.50;;;6.07;;
5704;SDS011;2877;48.238;11.160;2022-12-07T14:00:51;8.33;;;4.97;;
5704;SDS011;2877;48.238;11.160;2022-12-07T14:05:43;6.33;;;5.20;;
5704;SDS011;2877;48.238;11.160;2022-12-07T14:10:41;8.23;;;5.60;;
5704;SDS011;2877;48.238;11.160;2022-12-07T14:16:05;8.77;;;5.90;;
5704;SDS011;2877;48.238;11.160;2022-12-07T14:18:45;8.00;;;5.50;;
5704;SDS011;2877;48.238;11.160;2022-12-07T14:23:41;8.73;;;5.13;;
5704;SDS011;2877;48.238;11.160;2022-12-07T14:28:40;6.13;;;4.57;;
5704;SDS011;2877;48.238;11.160;2022-12-07T14:31:11;13.20;;;5.57;;
5704;SDS011;2877;48.238;11.160;2022-12-07T14:33:37;9.10;;;5.00;;
5704;SDS011;2877;48.238;11.160;2022-12-07T14:36:04;8.20;;;5.13;;
5704;SDS011;2877;48.238;11.160;2022-12-07T14:38:30;7.53;;;5.40;;
5704;SDS011;2877;48.238;11.160;2022-12-07T14:40:55;7.90;;;4.80;;
5704;SDS011;2877;48.238;11.160;2022-12-07T14:43:44;7.37;;;5.00;;
5704;SDS011;2877;48.238;11.160;2022-12-07T14:46:10;8.43;;;4.83;;
5704;SDS011;2877;48.238;11.160;2022-12-07T15:11:36;9.87;;;5.67;;
5704;SDS011;2877;48.238;11.160;2022-12-07T15:14:02;14.87;;;8.17;;
5704;SDS011;2877;48.238;11.160;2022-12-07T15:16:33;10.37;;;6.10;;
5704;SDS011;2877;48.238;11.160;2022-12-07T15:19:05;14.70;;;8.33;;
5704;SDS011;2877;48.238;11.160;2022-12-07T15:21:31;13.10;;;7.83;;
5704;SDS011;2877;48.238;11.160;2022-12-07T15:23:56;11.17;;;7.57;;
5704;SDS011;2877;48.238;11.160;2022-12-07T15:26:22;12.57;;;8.40;;
5704;SDS011;2877;48.238;11.160;2022-12-07T15:28:47;12.17;;;7.07;;
5704;SDS011;2877;48.238;11.160;2022-12-07T15:31:13;9.60;;;6.70;;
5704;SDS011;2877;48.238;11.160;2022-12-07T15:33:40;16.83;;;6.90;;
5704;SDS011;2877;48.238;11.160;2022-12-07T15:36:05;13.90;;;6.70;;
5704;SDS011;2877;48.238;11.160;2022-12-07T15:38:32;9.90;;;6.40;;
5704;SDS011;2877;48.238;11.160;2022-12-07T15:40:57;9.93;;;6.63;;
5704;SDS011;2877;48.238;11.160;2022-12-07T15:43:23;11.03;;;6.33;;
5704;SDS011;2877;48.238;11.160;2022-12-07T15:46:07;13.70;;;9.00;;
5704;SDS011;2877;48.238;11.160;2022-12-07T15:48:32;17.47;;;10.97;;
5704;SDS011;2877;48.238;11.160;2022-12-07T15:51:05;15.47;;;9.90;;
5704;SDS011;2877;48.238;11.160;2022-12-07T15:53:32;8.67;;;6.70;;
5704;SDS011;2877;48.238;11.160;2022-12-07T15:55:59;8.27;;;6.17;;
5704;SDS011;2877;48.238;11.160;2022-12-07T15:58:25;7.50;;;6.00;;
5704;SDS011;2877;48.238;11.160;2022-12-07T16:00:50;10.23;;;6.40;;
5704;SDS011;2877;48.238;11.160;2022-12-07T16:03:16;7.77;;;5.50;;
5704;SDS011;2877;48.238;11.160;2022-12-07T16:05:42;10.37;;;6.27;;
5704;SDS011;2877;48.238;11.160;2022-12-07T16:08:13;10.67;;;5.87;;
5704;SDS011;2877;48.238;11.160;2022-12-07T16:10:38;6.50;;;5.03;;
5704;SDS011;2877;48.238;11.160;2022-12-07T16:13:06;8.00;;;5.13;;
5704;SDS011;2877;48.238;11.160;2022-12-07T16:15:32;7.70;;;5.17;;
5704;SDS011;2877;48.238;11.160;2022-12-07T16:17:57;5.50;;;4.87;;
5704;SDS011;2877;48.238;11.160;2022-12-07T16:20:23;7.60;;;5.47;;
5704;SDS011;2877;48.238;11.160;2022-12-07T16:22:51;6.70;;;5.00;;
5704;SDS011;2877;48.238;11.160;2022-12-07T16:25:17;9.07;;;6.00;;
5704;SDS011;2877;48.238;11.160;2022-12-07T16:27:43;12.43;;;8.40;;
5704;SDS011;2877;48.238;11.160;2022-12-07T16:30:08;14.00;;;8.13;;
5704;SDS011;2877;48.238;11.160;2022-12-07T16:32:36;13.43;;;8.33;;
5704;SDS011;2877;48.238;11.160;2022-12-07T16:35:02;17.33;;;9.57;;
5704;SDS011;2877;48.238;11.160;2022-12-07T16:37:28;12.20;;;8.13;;
5704;SDS011;2877;48.238;11.160;2022-12-07T16:39:53;17.30;;;9.90;;
5704;SDS011;2877;48.238;11.160;2022-12-07T16:42:19;15.80;;;9.57;;
5704;SDS011;2877;48.238;11.160;2022-12-07T16:44:44;20.07;;;12.30;;
5704;SDS011;2877;48.238;11.160;2022-12-07T16:47:10;16.30;;;10.03;;
5704;SDS011;2877;48.238;11.160;2022-12-07T16:49:35;13.57;;;8.97;;
5704;SDS011;2877;48.238;11.160;2022-12-07T16:52:01;11.23;;;7.83;;
5704;SDS011;2877;48.238;11.160;2022-12-07T16:54:26;12.40;;;8.17;;
5704;SDS011;2877;48.238;11.160;2022-12-07T16:56:55;13.80;;;7.80;;
5704;SDS011;2877;48.238;11.160;2022-12-07T16:59:21;10.40;;;7.80;;
5704;SDS011;2877;48.238;11.160;2022-12-07T17:01:46;11.47;;;8.03;;
5704;SDS011;2877;48.238;11.160;2022-12-07T17:04:12;13.67;;;7.67;;
5704;SDS011;2877;48.238;11.160;2022-12-07T17:06:38;9.80;;;7.20;;
5704;SDS011;2877;48.238;11.160;2022-12-07T17:09:03;9.53;;;6.83;;
5704;SDS011;2877;48.238;11.160;2022-12-07T17:11:33;10.10;;;6.90;;
5704;SDS011;2877;48.238;11.160;2022-12-07T17:13:59;9.40;;;7.10;;
5704;SDS011;2877;48.238;11.160;2022-12-07T17:16:43;11.90;;;7.63;;
5704;SDS011;2877;48.238;11.160;2022-12-07T17:19:10;13.20;;;7.87;;